North York, Canada
Current Conditions -  °F | °C
As of 7:00 AM on Saturday 20 Dec 2014 (Local Time) from CYKZ Reporting Station
Few Clouds Few Clouds  
Wind Chill: 18°   Ceiling: Unl
Heat Index: 18°   Visibility: 15mi
Dew Point: 14°   Wind: 3mph
Humidity: 86%   Direction: 340°NNW
Pressure: 30.29"   Gusts: NA
Location:  43.77°N, 79.41°W
Report Text: CYKZ 201200Z 34003KT 15SM FEW005 FEW040 M08/M10 A3029 RMKSC1SC1 FROIN SLP270
Loading
Personal Weather Stations






























Interactive Weather Map New forecast layout! Learn more

10-Day Weather Forecast

Advertisements
Track Severe Weather on mobile